Time;durP1;ratioP1;P1;durP2;ratioP2;P2;SDS_P1;SDS_P2;PMS_P1;PMS_P2;Temp;Humidity;BMP_temperature;BMP_pressure;BME280_temperature;BME280_humidity;BME280_pressure;Samples;Min_cycle;Max_cycle;Signal;HPM_P1;HPM_P2
2022/10/15 00:00:25;;;;;;;1.23;0.90;;;;;;;11.82;70.81;93683.16;5064760;28;20505;-35
2022/10/15 00:02:50;;;;;;;0.82;0.82;;;;;;;11.80;71.17;93677.41;5068927;28;20029;-35
2022/10/15 00:05:16;;;;;;;0.77;0.77;;;;;;;11.73;71.54;93683.69;5067829;28;20032;-35
2022/10/15 00:07:41;;;;;;;0.82;0.82;;;;;;;11.70;72.04;93687.53;5067623;28;20109;-35
2022/10/15 00:10:07;;;;;;;1.10;1.10;;;;;;;11.69;71.76;93677.78;5068958;28;20028;-35
2022/10/15 00:12:32;;;;;;;1.05;1.05;;;;;;;11.73;71.42;93677.41;5046927;28;20488;-35
2022/10/15 00:14:57;;;;;;;0.80;0.80;;;;;;;11.72;71.63;93682.19;5066019;28;20040;-35
2022/10/15 00:17:23;;;;;;;0.30;0.30;;;;;;;11.80;70.96;93680.16;5068971;28;20039;-35
2022/10/15 00:19:48;;;;;;;0.98;0.98;;;;;;;11.78;71.40;93677.22;5058977;28;20024;-35
2022/10/15 00:22:14;;;;;;;1.38;1.02;;;;;;;11.69;72.23;93671.50;5062442;28;20036;-35
2022/10/15 00:24:39;;;;;;;2.70;1.30;;;;;;;11.76;71.76;93674.25;5062460;28;20028;-35
2022/10/15 00:27:05;;;;;;;0.60;0.60;;;;;;;11.86;71.24;93668.94;5061161;28;20129;-35
2022/10/15 00:29:31;;;;;;;0.50;0.50;;;;;;;11.72;71.54;93671.13;5069867;28;20420;-35
2022/10/15 00:31:56;;;;;;;0.73;0.73;;;;;;;11.80;71.65;93671.88;5066674;28;20056;-35
2022/10/15 00:34:21;;;;;;;1.40;1.30;;;;;;;11.82;71.45;93663.78;5063087;28;20039;-35
2022/10/15 00:36:48;;;;;;;1.38;1.25;;;;;;;11.78;71.68;93662.66;5067482;28;20054;-35
2022/10/15 00:39:14;;;;;;;4.32;2.65;;;;;;;11.59;72.01;93657.44;5069205;28;20020;-35
2022/10/15 00:41:42;;;;;;;0.70;0.65;;;;;;;11.52;72.69;93663.69;5062978;28;20094;-35
2022/10/15 00:44:20;;;;;;;0.20;0.20;;;;;;;11.66;72.08;93658.72;5068312;28;20031;-35
2022/10/15 00:46:47;;;;;;;1.20;1.20;;;;;;;11.72;71.80;93656.56;5060702;28;20033;-35
2022/10/15 00:49:21;;;;;;;0.50;0.50;;;;;;;11.82;71.53;93663.03;5035420;28;20416;-35
2022/10/15 00:52:08;;;;;;;1.70;0.95;;;;;;;11.74;71.48;93642.91;5042736;28;20049;-35
2022/10/15 00:54:40;;;;;;;2.75;0.80;;;;;;;11.54;72.57;93655.59;5053217;28;20115;-35
2022/10/15 00:57:06;;;;;;;1.25;1.20;;;;;;;11.50;72.89;93655.19;5041160;28;20040;-35
2022/10/15 00:59:34;;;;;;;1.02;0.88;;;;;;;11.62;72.52;93642.50;5049445;28;20645;-35
2022/10/15 01:02:01;;;;;;;2.17;1.80;;;;;;;11.72;72.10;93649.00;5068360;28;20025;-36
2022/10/15 01:04:27;;;;;;;0.43;0.43;;;;;;;11.74;72.11;93648.44;5057681;28;20061;-35
2022/10/15 01:06:53;;;;;;;1.20;1.05;;;;;;;11.62;72.33;93639.00;5040682;28;20051;-35
2022/10/15 01:09:18;;;;;;;0.65;0.65;;;;;;;11.42;72.98;93644.13;5045554;28;20421;-35
2022/10/15 01:11:48;;;;;;;0.73;0.73;;;;;;;11.34;73.56;93642.63;5047624;28;20028;-35
2022/10/15 01:14:26;;;;;;;0.75;0.75;;;;;;;11.52;73.28;93640.84;5042073;28;20036;-35
2022/10/15 01:16:56;;;;;;;0.70;0.70;;;;;;;11.51;72.88;93637.34;5060565;28;20036;-35
2022/10/15 01:19:36;;;;;;;0.40;0.40;;;;;;;11.52;72.96;93638.06;5063939;28;20033;-35
2022/10/15 01:22:29;;;;;;;1.77;1.67;;;;;;;11.48;73.45;93641.19;5046194;28;20104;-35
2022/10/15 01:25:07;;;;;;;1.27;1.02;;;;;;;11.59;73.20;93635.31;5044690;28;20044;-35
2022/10/15 01:27:40;;;;;;;0.52;0.52;;;;;;;11.37;73.35;93622.91;5063356;28;20068;-34
2022/10/15 01:30:28;;;;;;;0.40;0.40;;;;;;;11.38;73.64;93631.97;5048383;28;20472;-36
2022/10/15 01:33:49;;;;;;;0.88;0.88;;;;;;;11.47;73.50;93622.38;5043278;28;20101;-35
2022/10/15 01:36:27;;;;;;;0.35;0.35;;;;;;;11.59;73.09;93629.03;5004719;28;20044;-36
2022/10/15 01:39:26;;;;;;;1.50;1.40;;;;;;;11.54;72.90;93625.19;5055214;28;20377;-35
2022/10/15 01:41:55;;;;;;;0.63;0.63;;;;;;;11.52;72.62;93613.19;5053770;28;20504;-36
2022/10/15 01:44:22;;;;;;;;;;;;;;;11.61;72.32;93629.97;5048163;28;20048;-36
2022/10/15 01:47:22;;;;;;;0.40;0.40;;;;;;;11.72;71.93;93634.44;5044648;28;19909;-36
2022/10/15 01:49:48;;;;;;;3.85;1.85;;;;;;;11.63;71.55;93621.84;5039527;28;20052;-36
2022/10/15 01:52:18;;;;;;;7.22;1.05;;;;;;;11.74;71.65;93631.84;5049347;28;20021;-35
2022/10/15 01:54:45;;;;;;;0.35;0.35;;;;;;;11.72;71.89;93635.16;5050335;28;20116;-35
2022/10/15 01:57:11;;;;;;;0.30;0.30;;;;;;;11.82;71.66;93638.88;5044032;28;20078;-35
2022/10/15 01:59:37;;;;;;;2.30;1.25;;;;;;;11.57;72.18;93632.34;5072056;28;20392;-35
2022/10/15 02:02:02;;;;;;;0.40;0.40;;;;;;;11.56;72.89;93641.97;5066331;28;20020;-35
2022/10/15 02:04:30;;;;;;;0.40;0.40;;;;;;;11.60;72.31;93644.34;5058977;28;20055;-35
2022/10/15 02:07:01;;;;;;;1.20;1.10;;;;;;;11.67;72.27;93638.88;5071040;28;20054;-35
2022/10/15 02:09:57;;;;;;;0.20;0.20;;;;;;;11.65;72.07;93637.91;5066367;28;20016;-35
2022/10/15 02:13:13;;;;;;;2.53;2.05;;;;;;;11.54;72.58;93639.00;5048944;28;20033;-35
2022/10/15 02:16:17;;;;;;;1.95;1.20;;;;;;;11.53;72.65;93634.75;4965601;28;20033;-35
2022/10/15 02:19:10;;;;;;;1.10;1.00;;;;;;;11.51;73.08;93636.59;4932832;28;20039;-35
2022/10/15 02:21:43;;;;;;;1.02;1.02;;;;;;;11.56;73.07;93630.91;5059506;28;20035;-35
2022/10/15 02:24:22;;;;;;;8.15;1.90;;;;;;;11.46;72.93;93638.22;5065680;28;20028;-35
2022/10/15 02:26:51;;;;;;;1.70;1.65;;;;;;;11.50;73.23;93640.66;5071907;28;20016;-36
2022/10/15 02:29:19;;;;;;;1.42;1.33;;;;;;;11.48;72.70;93641.19;5050047;28;20028;-35
2022/10/15 02:31:46;;;;;;;0.60;0.60;;;;;;;11.50;72.76;93646.19;5049878;28;20044;-35
2022/10/15 02:34:16;;;;;;;1.98;1.80;;;;;;;11.63;72.48;93641.22;5069241;28;20020;-35
2022/10/15 02:36:42;;;;;;;2.25;2.15;;;;;;;11.53;72.65;93634.75;5053190;28;20107;-35
2022/10/15 02:39:11;;;;;;;1.38;1.30;;;;;;;11.61;72.82;93641.03;5052182;28;20112;-35
2022/10/15 02:41:37;;;;;;;7.53;1.55;;;;;;;11.61;72.71;93643.78;5065828;28;20017;-35
2022/10/15 02:44:03;;;;;;;2.58;1.92;;;;;;;11.56;72.47;93647.50;5046330;28;20110;-35
2022/10/15 02:46:28;;;;;;;1.20;1.20;;;;;;;11.61;72.75;93646.56;5070340;28;20032;-35
2022/10/15 02:48:54;;;;;;;1.73;1.63;;;;;;;11.67;72.55;93647.16;5041506;28;20574;-35
2022/10/15 02:51:19;;;;;;;0.60;0.60;;;;;;;11.67;72.58;93651.97;5065336;28;20436;-35
2022/10/15 02:53:45;;;;;;;1.08;1.02;;;;;;;11.61;72.80;93643.78;5063917;28;20024;-35
2022/10/15 02:56:10;;;;;;;1.20;1.10;;;;;;;11.41;73.06;93639.16;5060729;28;20025;-35
2022/10/15 02:58:36;;;;;;;1.15;1.10;;;;;;;11.41;73.50;93650.94;5063628;28;20102;-35
2022/10/15 03:01:02;;;;;;;0.68;0.68;;;;;;;11.41;73.37;93628.09;5070684;28;20020;-35
2022/10/15 03:03:27;;;;;;;0.77;0.77;;;;;;;11.43;73.25;93647.66;5064871;28;20017;-35
2022/10/15 03:05:53;;;;;;;2.05;1.10;;;;;;;11.56;73.24;93644.72;5070196;28;20020;-35
2022/10/15 03:08:18;;;;;;;1.20;1.17;;;;;;;11.49;73.50;93639.91;5068418;28;20031;-35
2022/10/15 03:10:45;;;;;;;0.43;0.43;;;;;;;11.53;73.19;93636.78;5071014;28;20024;-35
2022/10/15 03:13:10;;;;;;;0.88;0.77;;;;;;;11.46;73.37;93638.22;5067052;28;20024;-35
2022/10/15 03:15:36;;;;;;;0.90;0.90;;;;;;;11.23;74.10;93646.50;5070940;28;20101;-34
2022/10/15 03:18:03;;;;;;;0.70;0.70;;;;;;;11.28;74.11;93648.31;5061576;28;20028;-41
2022/10/15 03:20:28;;;;;;;0.32;0.32;;;;;;;11.29;74.41;93643.53;5049203;28;20031;-42
2022/10/15 03:22:53;;;;;;;0.25;0.25;;;;;;;11.30;73.92;93645.75;5065984;28;20432;-35
2022/10/15 03:25:19;;;;;;;1.23;1.23;;;;;;;11.12;74.47;93649.56;5065324;28;20416;-35
2022/10/15 03:27:44;;;;;;;0.60;0.60;;;;;;;11.14;74.37;93643.50;5064305;28;20098;-35
2022/10/15 03:30:10;;;;;;;0.75;0.75;;;;;;;11.14;74.51;93651.78;5064640;28;20097;-35
2022/10/15 03:32:35;;;;;;;0.40;0.40;;;;;;;11.11;74.54;93641.84;5063222;28;20151;-35
2022/10/15 03:35:01;;;;;;;0.50;0.50;;;;;;;10.89;74.97;93643.22;5066208;28;20040;-35
2022/10/15 03:37:26;;;;;;;0.60;0.60;;;;;;;10.98;74.79;93644.75;5058681;28;20025;-35
2022/10/15 03:39:52;;;;;;;0.85;0.85;;;;;;;11.03;74.03;93652.09;5064772;28;20016;-35
2022/10/15 03:42:17;;;;;;;0.40;0.40;;;;;;;10.85;73.93;93653.16;5062002;28;20086;-35
2022/10/15 03:44:43;;;;;;;2.33;2.17;;;;;;;10.76;74.18;93648.88;5068280;28;20114;-35
2022/10/15 03:47:08;;;;;;;0.77;0.77;;;;;;;10.58;74.28;93661.66;5065457;28;20020;-35
2022/10/15 03:49:33;;;;;;;0.60;0.60;;;;;;;10.66;74.20;93654.16;5063201;28;20020;-35
2022/10/15 03:51:59;;;;;;;1.83;1.30;;;;;;;10.67;74.21;93652.16;5065575;28;20032;-34
2022/10/15 03:54:24;;;;;;;0.95;0.95;;;;;;;10.57;74.36;93657.41;5069247;28;20397;-34
2022/10/15 03:56:50;;;;;;;1.42;1.23;;;;;;;10.34;75.01;93651.03;5065536;28;20438;-35
2022/10/15 03:59:15;;;;;;;0.30;0.30;;;;;;;10.42;74.71;93651.81;5061004;28;20033;-35
2022/10/15 04:01:42;;;;;;;0.45;0.45;;;;;;;10.24;74.89;93650.06;5065811;28;20027;-35
2022/10/15 04:04:10;;;;;;;0.63;0.63;;;;;;;10.16;75.24;93646.47;5060935;28;20024;-35
2022/10/15 04:06:35;;;;;;;0.85;0.57;;;;;;;10.00;75.29;93652.41;5066892;28;20035;-35
2022/10/15 04:09:01;;;;;;;2.30;1.20;;;;;;;10.03;75.30;93654.09;5069997;28;20020;-35
2022/10/15 04:11:26;;;;;;;0.22;0.22;;;;;;;9.89;75.61;93651.41;5064951;28;20033;-35
2022/10/15 04:13:52;;;;;;;2.35;0.88;;;;;;;9.86;75.79;93660.00;5065397;28;20021;-35
2022/10/15 04:16:17;;;;;;;1.38;1.30;;;;;;;9.95;75.20;93648.50;5066229;28;20020;-35
2022/10/15 04:18:42;;;;;;;2.60;1.15;;;;;;;9.97;74.79;93650.72;5062515;28;20032;-35
2022/10/15 04:21:09;;;;;;;1.15;1.15;;;;;;;9.80;75.39;93651.16;5066829;28;20114;-35
2022/10/15 04:23:34;;;;;;;0.70;0.70;;;;;;;9.83;75.20;93656.31;5065232;28;20029;-35
2022/10/15 04:26:00;;;;;;;1.40;0.93;;;;;;;9.71;75.34;93657.13;5067081;28;20416;-36
2022/10/15 04:28:27;;;;;;;1.15;1.02;;;;;;;9.52;76.17;93653.81;5066998;28;20424;-34
2022/10/15 04:30:57;;;;;;;0.40;0.40;;;;;;;9.56;76.33;93660.50;5064813;28;20068;-34
2022/10/15 04:33:23;;;;;;;0.73;0.73;;;;;;;9.61;75.68;93656.88;5068365;28;20103;-34
2022/10/15 04:35:57;;;;;;;0.32;0.32;;;;;;;9.59;75.78;93653.91;5067630;28;20025;-34
2022/10/15 04:38:23;;;;;;;0.82;0.82;;;;;;;9.74;75.98;93661.56;5060983;28;20025;-34
2022/10/15 04:40:48;;;;;;;0.73;0.73;;;;;;;9.64;75.67;93668.81;5059373;28;20017;-34
2022/10/15 04:43:14;;;;;;;1.92;1.83;;;;;;;9.64;75.15;93649.53;5067437;28;20478;-34
2022/10/15 04:45:40;;;;;;;1.50;1.42;;;;;;;9.83;74.43;93655.59;5069768;28;20107;-34
2022/10/15 04:48:05;;;;;;;1.00;1.00;;;;;;;9.70;74.93;93658.41;5066844;28;20020;-34
2022/10/15 04:50:30;;;;;;;2.17;1.98;;;;;;;9.54;75.09;93657.53;5057834;28;20103;-34
2022/10/15 04:52:58;;;;;;;3.50;2.63;;;;;;;9.64;75.05;93666.81;5065407;28;20032;-34
2022/10/15 04:55:23;;;;;;;2.10;2.00;;;;;;;9.64;75.55;93675.06;5059860;28;20020;-34
2022/10/15 04:57:49;;;;;;;3.47;2.10;;;;;;;9.44;75.52;93675.06;5068605;28;20035;-34
2022/10/15 05:00:14;;;;;;;2.88;2.50;;;;;;;9.25;76.31;93682.78;5066248;28;20020;-35
2022/10/15 05:02:43;;;;;;;1.45;1.45;;;;;;;9.51;76.33;93674.38;5061678;28;20017;-35
2022/10/15 05:05:08;;;;;;;0.77;0.77;;;;;;;9.29;77.45;93686.66;5054699;28;20445;-35
2022/10/15 05:07:34;;;;;;;2.05;1.80;;;;;;;9.40;77.53;93682.94;5062821;28;20036;-35
2022/10/15 05:09:59;;;;;;;1.77;1.63;;;;;;;9.57;77.15;93675.75;5068212;28;20504;-35
2022/10/15 05:12:25;;;;;;;1.30;1.30;;;;;;;9.51;76.90;93685.41;5056831;28;20499;-35
2022/10/15 05:14:50;;;;;;;3.20;2.47;;;;;;;9.50;76.75;93684.69;5068383;28;20500;-35
2022/10/15 05:17:15;;;;;;;3.10;1.80;;;;;;;9.44;77.06;93688.84;5067802;28;20021;-35
2022/10/15 05:19:41;;;;;;;1.42;1.35;;;;;;;9.41;76.31;93676.88;5066654;28;20020;-35
2022/10/15 05:22:06;;;;;;;1.30;1.30;;;;;;;9.56;75.79;93688.06;5067184;28;20024;-34
2022/10/15 05:24:32;;;;;;;4.13;2.65;;;;;;;9.49;76.49;93687.97;5067556;28;20020;-34
2022/10/15 05:26:57;;;;;;;3.95;1.77;;;;;;;9.42;76.79;93694.16;5069187;28;20035;-34
2022/10/15 05:29:23;;;;;;;1.05;1.05;;;;;;;9.30;77.90;93688.16;5065048;28;20025;-34
2022/10/15 05:31:51;;;;;;;0.40;0.40;;;;;;;9.47;77.56;93704.28;5062989;28;20067;-35
2022/10/15 05:34:16;;;;;;;1.85;1.75;;;;;;;9.47;77.43;93707.06;5063276;28;20029;-35
2022/10/15 05:36:42;;;;;;;1.67;1.60;;;;;;;9.43;77.82;93706.66;5040664;28;20036;-35
2022/10/15 05:39:09;;;;;;;1.30;1.20;;;;;;;9.51;77.41;93694.44;5045092;28;20025;-35
2022/10/15 05:41:35;;;;;;;2.03;0.68;;;;;;;9.62;76.95;93704.44;5062645;28;20114;-35
2022/10/15 05:44:01;;;;;;;0.82;0.82;;;;;;;9.66;76.63;93691.06;5069298;28;20024;-35
2022/10/15 05:46:26;;;;;;;3.67;3.38;;;;;;;9.75;75.56;93699.63;5065589;28;20029;-34
2022/10/15 05:48:54;;;;;;;7.20;6.47;;;;;;;9.70;75.60;93702.53;5046317;28;20176;-34
2022/10/15 05:51:20;;;;;;;8.40;6.63;;;;;;;9.78;76.11;93706.84;5063923;28;20044;-34
2022/10/15 05:53:46;;;;;;;4.28;3.80;;;;;;;9.89;76.22;93717.59;5064053;28;20438;-34
2022/10/15 05:56:15;;;;;;;3.10;2.85;;;;;;;9.98;76.40;93721.16;5055438;28;20100;-34
2022/10/15 05:58:40;;;;;;;1.73;1.70;;;;;;;10.11;76.80;93719.13;5057811;28;20055;-34
2022/10/15 06:01:09;;;;;;;1.50;1.48;;;;;;;10.20;76.66;93715.84;5064080;28;20493;-34
2022/10/15 06:03:35;;;;;;;3.38;2.45;;;;;;;10.25;76.97;93717.00;5068454;28;20033;-34
2022/10/15 06:06:01;;;;;;;2.33;2.15;;;;;;;10.47;76.81;93717.19;5068649;28;20040;-35
2022/10/15 06:08:27;;;;;;;1.40;1.40;;;;;;;10.76;76.42;93719.94;5066712;28;20489;-34
2022/10/15 06:10:57;;;;;;;1.50;1.45;;;;;;;11.11;75.09;93717.16;5059162;28;20382;-34
2022/10/15 06:13:23;;;;;;;3.75;3.45;;;;;;;11.19;74.11;93722.75;5065186;28;20039;-34
2022/10/15 06:15:48;;;;;;;1.83;1.73;;;;;;;11.45;73.82;93719.72;5067648;28;20024;-34
2022/10/15 06:18:15;;;;;;;1.15;1.10;;;;;;;11.73;73.42;93721.66;5067349;28;20093;-34
2022/10/15 06:20:42;;;;;;;2.20;1.10;;;;;;;12.31;71.71;93729.84;5047972;28;20559;-35
2022/10/15 06:23:08;;;;;;;1.48;1.05;;;;;;;12.69;69.97;93732.63;5068167;28;20048;-34
2022/10/15 06:25:34;;;;;;;0.50;0.50;;;;;;;12.80;69.78;93724.66;5069119;28;20024;-34
2022/10/15 06:28:04;;;;;;;1.35;1.23;;;;;;;13.38;68.06;93729.13;5070614;28;20772;-40
2022/10/15 06:30:30;;;;;;;1.27;0.82;;;;;;;14.03;65.55;93735.50;5066605;28;20497;-41
2022/10/15 06:32:55;;;;;;;0.75;0.75;;;;;;;14.80;62.73;93737.16;5068933;28;20110;-39
2022/10/15 06:35:22;;;;;;;0.85;0.85;;;;;;;15.28;61.00;93742.44;5065398;28;20062;-40
2022/10/15 06:37:48;;;;;;;2.75;1.42;;;;;;;15.80;57.97;93739.09;5069404;28;20158;-39
2022/10/15 06:40:14;;;;;;;1.05;1.05;;;;;;;16.10;56.64;93735.16;5068487;28;20412;-40
2022/10/15 06:42:40;;;;;;;1.08;0.98;;;;;;;16.65;55.28;93740.84;5066155;28;20082;-40
2022/10/15 06:45:08;;;;;;;0.63;0.50;;;;;;;16.98;53.25;93729.34;5068854;28;20016;-39
2022/10/15 06:47:34;;;;;;;0.68;0.60;;;;;;;17.31;52.46;93736.00;5069790;28;20023;-39
2022/10/15 06:50:00;;;;;;;0.47;0.47;;;;;;;17.39;52.01;93736.59;5064915;28;20040;-39
2022/10/15 06:52:26;;;;;;;1.65;1.55;;;;;;;17.40;51.44;93747.19;5065479;28;20548;-39
2022/10/15 06:54:51;;;;;;;0.17;0.17;;;;;;;17.61;51.56;93741.03;5044010;28;20157;-40
2022/10/15 06:57:17;;;;;;;0.82;0.82;;;;;;;17.77;51.36;93739.41;5067244;28;20025;-40
2022/10/15 06:59:42;;;;;;;1.88;1.75;;;;;;;18.00;50.06;93730.56;5065245;28;20521;-41
2022/10/15 07:02:09;;;;;;;0.63;0.63;;;;;;;18.37;48.95;93739.44;5063464;28;20085;-35
2022/10/15 07:04:35;;;;;;;1.95;0.93;;;;;;;18.03;49.95;93738.50;5061552;28;20024;-35
2022/10/15 07:07:00;;;;;;;1.73;1.63;;;;;;;18.30;48.87;93741.06;5065655;28;20021;-35
2022/10/15 07:09:26;;;;;;;0.52;0.52;;;;;;;18.72;47.81;93737.72;5062137;28;20641;-35
2022/10/15 07:11:52;;;;;;;1.45;1.35;;;;;;;18.84;47.48;93741.34;5058950;28;20112;-35
2022/10/15 07:14:18;;;;;;;1.02;0.95;;;;;;;18.70;47.10;93734.78;5062775;28;20033;-35
2022/10/15 07:16:44;;;;;;;0.57;0.57;;;;;;;18.73;47.40;93739.19;5061719;28;20021;-35
2022/10/15 07:19:10;;;;;;;1.83;1.73;;;;;;;18.92;46.62;93737.03;5057523;28;20025;-35
2022/10/15 07:21:36;;;;;;;2.17;2.08;;;;;;;19.11;45.83;93738.25;5059954;28;20024;-35
2022/10/15 07:24:02;;;;;;;0.88;0.88;;;;;;;19.25;46.32;93745.53;5061881;28;20028;-35
2022/10/15 07:26:29;;;;;;;0.40;0.40;;;;;;;19.43;44.79;93743.22;5061759;28;20028;-35
2022/10/15 07:28:56;;;;;;;2.13;2.03;;;;;;;19.58;45.47;93740.75;5061795;28;20020;-35
2022/10/15 07:31:22;;;;;;;1.33;1.23;;;;;;;19.43;44.97;93746.03;5064304;28;20036;-35
2022/10/15 07:33:48;;;;;;;0.80;0.80;;;;;;;18.73;46.10;93725.22;5067218;28;20020;-35
2022/10/15 07:36:14;;;;;;;1.88;1.73;;;;;;;18.44;46.70;93744.91;5038763;28;20021;-34
2022/10/15 07:38:41;;;;;;;0.95;0.82;;;;;;;17.76;47.66;93749.09;5058246;28;20036;-41
2022/10/15 07:41:09;;;;;;;1.02;0.93;;;;;;;17.55;49.20;93751.03;5063069;28;20166;-35
2022/10/15 07:43:35;;;;;;;0.77;0.77;;;;;;;17.15;50.42;93729.94;5062601;28;20504;-35
2022/10/15 07:46:01;;;;;;;0.50;0.50;;;;;;;17.03;51.16;93750.63;5064038;28;20455;-37
2022/10/15 07:48:28;;;;;;;2.00;1.83;;;;;;;17.15;50.01;93757.13;5064746;28;20051;-37
2022/10/15 07:50:57;;;;;;;1.27;1.27;;;;;;;16.68;51.17;93758.47;5063689;28;20045;-37
2022/10/15 07:53:23;;;;;;;0.55;0.55;;;;;;;16.55;52.16;93759.59;5056129;28;20025;-36
2022/10/15 07:55:49;;;;;;;0.77;0.73;;;;;;;16.74;50.68;93758.19;5065033;28;20035;-36
2022/10/15 07:58:15;;;;;;;0.50;0.50;;;;;;;16.54;50.89;93760.91;5059605;28;20040;-36
2022/10/15 08:00:40;;;;;;;0.63;0.43;;;;;;;16.45;51.27;93758.06;5062358;28;20385;-43
2022/10/15 08:03:06;;;;;;;2.03;1.92;;;;;;;16.34;51.87;93758.59;5062302;28;20049;-43
2022/10/15 08:05:32;;;;;;;1.80;1.70;;;;;;;16.21;51.75;93756.91;5064608;28;20020;-43
2022/10/15 08:07:58;;;;;;;0.70;0.70;;;;;;;15.92;52.94;93761.56;5066149;28;20024;-43
2022/10/15 08:10:23;;;;;;;1.98;1.77;;;;;;;15.78;53.22;93763.22;5062298;28;20615;-42
2022/10/15 08:12:49;;;;;;;2.28;2.10;;;;;;;15.77;52.93;93745.78;5062744;28;20035;-43
2022/10/15 08:15:14;;;;;;;1.08;1.02;;;;;;;16.08;53.18;93760.06;5059266;28;20029;-42
2022/10/15 08:17:40;;;;;;;0.70;0.70;;;;;;;16.15;53.78;93744.56;5068168;28;20043;-43
2022/10/15 08:20:06;;;;;;;1.10;0.82;;;;;;;16.91;50.46;93760.91;5064381;28;20116;-45
2022/10/15 08:22:32;;;;;;;0.50;0.50;;;;;;;17.10;50.23;93752.56;5064066;28;20028;-44
2022/10/15 08:24:58;;;;;;;0.47;0.40;;;;;;;17.06;49.32;93733.47;5064551;28;20024;-43
2022/10/15 08:27:23;;;;;;;0.93;0.93;;;;;;;17.02;49.35;93744.31;5065064;28;20029;-45
2022/10/15 08:29:49;;;;;;;1.13;1.05;;;;;;;16.85;48.91;93752.78;5068035;28;20520;-45
2022/10/15 08:32:14;;;;;;;0.85;0.85;;;;;;;16.68;49.21;93753.63;5056216;28;20036;-42
2022/10/15 08:34:40;;;;;;;1.40;1.30;;;;;;;16.58;48.97;93752.13;5063118;28;20050;-45
2022/10/15 08:37:05;;;;;;;0.32;0.32;;;;;;;16.58;50.65;93754.91;5063134;28;20036;-47
2022/10/15 08:39:31;;;;;;;0.30;0.30;;;;;;;16.05;51.02;93754.91;5062210;28;20024;-45
2022/10/15 08:41:59;;;;;;;0.75;0.75;;;;;;;16.11;51.29;93745.00;5067834;28;20070;-45
2022/10/15 08:44:30;;;;;;;3.00;1.23;;;;;;;16.14;50.96;93751.44;5058951;28;20033;-41
2022/10/15 08:47:04;;;;;;;0.65;0.65;;;;;;;16.11;49.98;93738.69;5062218;28;20656;-42
2022/10/15 08:49:51;;;;;;;1.60;1.58;;;;;;;16.07;51.40;93741.88;5040382;28;20543;-36
2022/10/15 08:52:22;;;;;;;10.20;2.92;;;;;;;16.31;49.11;93738.19;5042195;28;20031;-36
2022/10/15 08:54:48;;;;;;;2.28;2.10;;;;;;;16.40;49.19;93740.28;5058254;28;20148;-35
2022/10/15 08:57:22;;;;;;;1.27;1.17;;;;;;;16.46;49.96;93745.56;5039644;28;20032;-36
2022/10/15 09:00:05;;;;;;;0.40;0.40;;;;;;;16.06;48.24;93745.97;5056730;28;20031;-36
2022/10/15 09:02:39;;;;;;;4.68;1.48;;;;;;;16.12;48.96;93749.22;5037579;28;20047;-36
2022/10/15 09:05:19;;;;;;;2.53;2.33;;;;;;;16.40;48.82;93745.84;5056423;28;20030;-36
2022/10/15 09:07:53;;;;;;;4.50;0.57;;;;;;;16.86;49.06;93743.13;5056533;28;20393;-36
2022/10/15 09:10:46;;;;;;;1.00;1.00;;;;;;;17.56;47.68;93742.06;5043122;28;20037;-35
2022/10/15 09:13:32;;;;;;;1.70;1.60;;;;;;;18.09;46.29;93738.94;5042281;28;20060;-35
2022/10/15 09:16:23;;;;;;;2.90;0.80;;;;;;;18.55;43.34;93726.75;5062538;28;20033;-35
2022/10/15 09:18:51;;;;;;;0.30;0.30;;;;;;;18.98;43.46;93745.09;5065409;28;20106;-35
2022/10/15 09:21:17;;;;;;;0.38;0.38;;;;;;;18.99;42.60;93738.19;5064468;28;20034;-36
2022/10/15 09:23:44;;;;;;;1.58;1.08;;;;;;;18.96;43.56;93739.38;5064176;28;20030;-35
2022/10/15 09:26:23;;;;;;;3.25;1.13;;;;;;;19.34;41.23;93736.34;5061801;28;20538;-35
2022/10/15 09:28:54;;;;;;;1.08;0.70;;;;;;;19.71;39.33;93733.88;5057476;28;20086;-35
2022/10/15 09:31:24;;;;;;;1.45;0.60;;;;;;;19.91;42.28;93728.84;5064063;28;20111;-35
2022/10/15 09:34:15;;;;;;;0.30;0.30;;;;;;;20.13;39.70;93725.38;5043847;28;20032;-35
2022/10/15 09:37:04;;;;;;;0.65;0.65;;;;;;;20.22;38.55;93735.81;5058108;28;20036;-34
2022/10/15 09:39:54;;;;;;;1.55;0.63;;;;;;;20.10;39.68;93725.84;5040064;28;20527;-34
2022/10/15 09:42:29;;;;;;;0.93;0.82;;;;;;;19.78;39.83;93727.31;5060392;28;20064;-34
2022/10/15 09:44:59;;;;;;;0.55;0.55;;;;;;;19.39;40.36;93726.91;5047022;28;20052;-34
2022/10/15 09:47:30;;;;;;;0.38;0.38;;;;;;;19.15;40.93;93730.84;5047433;28;20445;-34
2022/10/15 09:49:56;;;;;;;22.10;3.35;;;;;;;18.91;41.94;93732.03;5064966;28;20479;-35
2022/10/15 09:52:47;;;;;;;0.40;0.40;;;;;;;18.62;42.29;93728.66;5049818;28;20107;-35
2022/10/15 09:55:31;;;;;;;0.50;0.50;;;;;;;18.51;43.68;93726.47;5069052;28;20024;-35
2022/10/15 09:58:07;;;;;;;0.50;0.50;;;;;;;18.54;42.41;93726.00;5070329;28;20033;-35
2022/10/15 10:00:59;;;;;;;2.08;0.93;;;;;;;18.51;44.12;93727.22;5068925;28;20032;-35
2022/10/15 10:03:27;;;;;;;1.90;0.88;;;;;;;18.32;43.52;93720.94;5069276;28;20074;-35
2022/10/15 10:06:20;;;;;;;1.40;0.87;;;;;;;18.16;42.84;93728.91;5066960;28;20085;-34
2022/10/15 10:08:49;;;;;;;0.63;0.63;;;;;;;18.24;42.60;93726.69;5023751;28;20052;-35
2022/10/15 10:11:15;;;;;;;0.65;0.65;;;;;;;18.18;43.04;93724.19;5070434;28;20043;-35
2022/10/15 10:13:55;;;;;;;0.55;0.55;;;;;;;18.12;43.51;93723.03;5064620;28;20032;-35
2022/10/15 10:16:21;;;;;;;2.17;0.80;;;;;;;17.97;43.14;93721.31;5047063;28;20028;-36
2022/10/15 10:19:11;;;;;;;0.20;0.20;;;;;;;17.60;43.50;93722.81;5052653;28;20180;-35
2022/10/15 10:21:38;;;;;;;2.17;0.65;;;;;;;17.30;44.30;93693.38;5043847;28;20029;-35
2022/10/15 10:24:23;;;;;;;0.85;0.85;;;;;;;17.40;45.16;93724.09;5039753;28;20032;-35
2022/10/15 10:26:48;;;;;;;0.40;0.40;;;;;;;17.53;44.04;93712.53;5046598;28;20028;-35
2022/10/15 10:29:19;;;;;;;0.20;0.20;;;;;;;17.91;44.03;93706.91;5060791;28;20518;-35
2022/10/15 10:31:49;;;;;;;0.35;0.35;;;;;;;19.21;40.45;93720.06;5047755;28;20553;-36
2022/10/15 10:34:17;;;;;;;0.50;0.50;;;;;;;19.97;38.69;93720.81;5048151;28;20457;-35
2022/10/15 10:36:47;;;;;;;0.28;0.28;;;;;;;19.50;39.63;93723.44;5045024;28;20059;-35
2022/10/15 10:39:26;;;;;;;0.22;0.22;;;;;;;19.02;39.78;93722.97;5062521;28;20111;-35
2022/10/15 10:41:57;;;;;;;0.10;0.10;;;;;;;18.51;41.48;93718.81;5048288;28;20055;-35
2022/10/15 10:44:37;;;;;;;1.08;1.05;;;;;;;18.12;41.90;93720.25;5066764;28;20087;-35
2022/10/15 10:47:14;;;;;;;0.73;0.73;;;;;;;17.85;42.49;93714.84;5066211;28;20512;-35
2022/10/15 10:49:44;;;;;;;0.38;0.30;;;;;;;17.56;43.58;93711.38;5066146;28;20032;-35
2022/10/15 10:52:36;;;;;;;0.15;0.15;;;;;;;17.16;44.54;93714.69;5047255;28;20090;-35
2022/10/15 10:55:05;;;;;;;0.70;0.70;;;;;;;17.09;45.01;93714.81;5066669;28;20464;-36
2022/10/15 10:57:39;;;;;;;;;;;;;;;17.02;45.87;93712.91;5061373;28;20032;-35
2022/10/15 11:00:06;;;;;;;0.75;0.75;;;;;;;16.90;45.49;93720.38;5063644;28;19970;-35
2022/10/15 11:02:34;;;;;;;0.30;0.30;;;;;;;16.69;47.12;93715.34;5064073;28;20024;-35
2022/10/15 11:05:00;;;;;;;0.45;0.45;;;;;;;16.57;46.82;93723.50;5057442;28;20037;-35
2022/10/15 11:07:56;;;;;;;1.90;1.63;;;;;;;16.40;47.83;93725.59;5062608;28;20064;-35
2022/10/15 11:10:27;;;;;;;1.10;1.10;;;;;;;16.32;47.50;93731.31;5060862;28;20063;-40
2022/10/15 11:13:02;;;;;;;0.28;0.28;;;;;;;16.09;48.07;93736.44;5048058;28;20033;-35
2022/10/15 11:15:42;;;;;;;0.30;0.30;;;;;;;15.96;49.09;93727.75;5069263;28;20037;-35
2022/10/15 11:18:23;;;;;;;0.50;0.50;;;;;;;15.81;49.34;93731.44;5066801;28;20035;-35
2022/10/15 11:20:53;;;;;;;1.00;1.00;;;;;;;15.72;49.54;93724.50;5041835;28;20033;-35
2022/10/15 11:23:43;;;;;;;0.60;0.60;;;;;;;15.57;50.58;93721.91;5047852;28;20123;-35
2022/10/15 11:26:29;;;;;;;0.38;0.38;;;;;;;15.41;51.48;93728.94;5066371;28;20048;-35
2022/10/15 11:28:58;;;;;;;0.43;0.43;;;;;;;15.39;50.54;93730.81;5042526;28;20029;-35
2022/10/15 11:32:07;;;;;;;0.45;0.45;;;;;;;15.25;51.54;93733.19;5061731;28;20148;-35
2022/10/15 11:34:38;;;;;;;;;;;;;;;15.23;51.65;93727.47;5037919;28;20528;-35
2022/10/15 11:37:11;;;;;;;0.73;0.73;;;;;;;15.01;52.33;93729.19;5061991;28;19935;-35
2022/10/15 11:40:15;;;;;;;5.88;0.88;;;;;;;14.88;53.60;93735.03;5054867;28;20112;-34
2022/10/15 11:43:12;;;;;;;0.40;0.40;;;;;;;14.83;54.26;93724.19;5015632;28;20098;-35
2022/10/15 11:45:41;;;;;;;0.50;0.50;;;;;;;14.79;53.93;93740.53;5048769;28;20038;-35
2022/10/15 11:48:12;;;;;;;1.55;1.05;;;;;;;14.77;54.79;93729.25;5059577;28;20028;-35
2022/10/15 11:50:48;;;;;;;0.43;0.43;;;;;;;14.83;54.79;93727.69;5046739;28;20050;-35